M I D A S
Marine Information and Data Acquisition System
Tripno 744 of the Zeeleeuw from 2004-07-05 06:15:59 to 2004-07-05 13:01:16
Back to CruiseResearch ActivitiesStationsMapUnderway DataData graphs

EquipmentUnitsComment
TimeDGPSUTC
LatitudeDGPSDM.mWGS84
LongitudeDGPSDM.mWGS84
HeadingGyrodeg 
SOGDGPSknotsSpeed over ground
COGDGPSdegCourse over ground
DepthEcho soundermeters200 kHz
Missing or incorrect values are displayed as -999
Navigation data collected by the RV Zeeleeuw from 2004-07-05 06:15:59 to 2004-07-05 13:01:16
Time Latitude Longitude Heading SOG COG Depth
2004-07-05 06:17:03 51°13.632 2°55.984 119.7 4.4 298 -999
2004-07-05 06:18:03 51°13.66 2°55.872 108.2 4.7 286 -999
2004-07-05 06:19:03 51°13.669 2°55.779 83.6 1.3 274 9.8
2004-07-05 06:20:03 51°13.674 2°55.786 30.6 1.3 208 11
2004-07-05 06:21:03 51°13.669 2°55.771 351.1 2.8 342 -999
2004-07-05 06:22:01 51°13.74 2°55.706 335.3 6.2 331 10.1
2004-07-05 06:23:03 51°13.845 2°55.619 341.1 7.3 336 9.5
2004-07-05 06:24:03 51°13.966 2°55.542 344 8 339 11.1
2004-07-05 06:25:03 51°14.092 2°55.463 342.6 8.6 337 12.1
2004-07-05 06:26:03 51°14.227 2°55.33 325.7 10.4 320 11.9
2004-07-05 06:27:08 51°14.35 2°55.079 308.8 11.8 303 10.6
2004-07-05 06:28:12 51°14.465 2°54.781 309.5 12.7 298 10.9
2004-07-05 06:29:12 51°14.49 2°54.49 265.6 8.2 258 10.8
2004-07-05 06:30:12 51°14.462 2°54.335 259.2 4.8 252 10.6
2004-07-05 06:31:11 51°14.441 2°54.232 261.4 3.6 252 9.7
2004-07-05 06:32:12 51°14.423 2°54.149 264.9 2.9 252 9.8
2004-07-05 06:33:16 51°14.383 2°53.997 246 9.1 240 9.8
2004-07-05 06:34:15 51°14.274 2°53.727 241.1 14 237 9.4
2004-07-05 06:35:21 51°14.132 2°53.377 240.8 14.3 236 9.5
2004-07-05 06:36:21 51°13.999 2°53.061 240.6 14.4 237 9.8
2004-07-05 06:37:21 51°13.87 2°52.741 241.2 14.3 237 10.1
2004-07-05 06:38:21 51°13.736 2°52.426 240.9 14.3 236 10.1
2004-07-05 06:39:25 51°13.603 2°52.08 243.9 14.3 239 10.1
2004-07-05 06:40:25 51°13.482 2°51.753 244.1 14.3 239 10.2
2004-07-05 06:41:23 51°13.365 2°51.436 244.5 14.3 240 10.2
2004-07-05 06:42:28 51°13.233 2°51.081 244.7 14.4 240 10.4
2004-07-05 06:43:29 51°13.109 2°50.748 243.8 14.4 239 10.4
2004-07-05 06:44:29 51°12.987 2°50.419 244 14.4 239 10.5
2004-07-05 06:45:28 51°12.867 2°50.094 243.6 14.4 239 10.5
2004-07-05 06:46:29 51°12.744 2°49.758 243.8 14.5 239 10.6
2004-07-05 06:47:29 51°12.623 2°49.429 244.4 14.4 239 10.7
2004-07-05 06:48:29 51°12.503 2°49.098 244.5 14.4 239 10.7
2004-07-05 06:49:29 51°12.383 2°48.768 244 14.5 240 10.7
2004-07-05 06:50:28 51°12.264 2°48.443 244.5 14.5 240 10.7
2004-07-05 06:51:29 51°12.141 2°48.108 244.9 14.4 241 10.6
2004-07-05 06:52:29 51°12.026 2°47.773 247.6 14.4 244 10.6
2004-07-05 06:53:29 51°11.921 2°47.43 248.1 14.4 244 10.5
2004-07-05 06:54:29 51°11.815 2°47.088 248.6 14.4 244 10.4
2004-07-05 06:55:29 51°11.709 2°46.745 248.4 14.4 245 10.4
2004-07-05 06:56:29 51°11.604 2°46.401 248.8 14.4 245 10.6
2004-07-05 06:57:28 51°11.501 2°46.063 248.2 14.4 244 10.4
2004-07-05 06:58:29 51°11.393 2°45.714 248.1 14.4 244 10.3
2004-07-05 06:59:27 51°11.296 2°45.378 250.3 14.4 247 10.1
2004-07-05 07:00:29 51°11.196 2°45.017 249.2 14.5 245 10
2004-07-05 07:01:29 51°11.1 2°44.665 250.4 14.5 247 9.9
2004-07-05 07:02:28 51°11.006 2°44.32 250.6 14.5 247 9.7
2004-07-05 07:03:29 51°10.91 2°43.962 251.3 14.4 247 9.5
2004-07-05 07:04:28 51°10.815 2°43.617 251.1 14.5 247 9.3
2004-07-05 07:05:29 51°10.72 2°43.259 251.1 14.4 247 9.2
2004-07-05 07:06:28 51°10.628 2°42.913 250.4 14.4 247 9
2004-07-05 07:07:29 51°10.534 2°42.555 250.4 14.4 247 8.9
2004-07-05 07:08:28 51°10.444 2°42.207 249.8 14.5 247 8.9
2004-07-05 07:09:28 51°10.35 2°41.855 247.6 14.5 245 8.8
2004-07-05 07:10:27 51°10.258 2°41.51 251.1 14.4 248 8.8
2004-07-05 07:11:29 51°10.164 2°41.144 251.1 14.5 248 8.9
2004-07-05 07:12:37 51°10.058 2°40.745 247.7 14.4 246 9
2004-07-05 07:13:35 51°9.971 2°40.402 250 14.4 247 9.1
2004-07-05 07:14:37 51°9.886 2°40.032 256.8 14.5 253 9.2
2004-07-05 07:15:36 51°9.814 2°39.672 257.2 14.5 254 9.2
2004-07-05 07:16:35 51°9.741 2°39.313 255 14.5 252 9.5
2004-07-05 07:17:36 51°9.665 2°38.94 256.3 14.5 253 9.7
2004-07-05 07:18:36 51°9.584 2°38.598 238.8 11 230 9.8
2004-07-05 07:19:36 51°9.481 2°38.588 130.4 5.2 128 9.7
2004-07-05 07:20:36 51°9.483 2°38.759 83.8 8.5 79 9.3
2004-07-05 07:21:36 51°9.53 2°39.015 82.5 10.8 79 9
2004-07-05 07:22:37 51°9.576 2°39.302 77.6 11.1 74 8.7
2004-07-05 07:23:43 51°9.652 2°39.6 75.2 11 74 8.6
2004-07-05 07:24:44 51°9.673 2°39.873 86.1 9.9 82 8.4
2004-07-05 07:25:44 51°9.721 2°40.117 76 9 75 8.2
2004-07-05 07:26:44 51°9.716 2°40.272 109.4 4.3 115 8.2
2004-07-05 07:27:43 51°9.683 2°40.341 124 2.8 136 7.9
2004-07-05 07:28:44 51°9.651 2°40.381 129.5 2.1 148 7.8
2004-07-05 07:29:44 51°9.624 2°40.406 130.5 1.8 153 7.7
2004-07-05 07:30:44 51°9.599 2°40.425 127.7 1.5 153 5.6
2004-07-05 07:31:44 51°9.58 2°40.442 119.3 1.2 150 5.6
2004-07-05 07:32:44 51°9.569 2°40.469 94 1.8 92 7.4
2004-07-05 07:33:44 51°9.608 2°40.521 31 5.1 9 7.4
2004-07-05 07:34:44 51°9.727 2°40.439 331.2 10.2 317 7.7
2004-07-05 07:35:43 51°9.798 2°40.154 282.1 13.4 270 8.3
2004-07-05 07:36:44 51°9.75 2°39.788 260 14.3 258 8.5
2004-07-05 07:37:44 51°9.692 2°39.418 256.9 14.5 253 8.8
2004-07-05 07:38:52 51°9.628 2°38.992 259.8 14.6 254 9.2
2004-07-05 07:39:52 51°9.57 2°38.616 261.4 14.7 257 9.5
2004-07-05 07:40:52 51°9.51 2°38.24 261.3 14.7 257 9.7
2004-07-05 07:41:52 51°9.451 2°37.863 261.2 14.7 258 10.1
2004-07-05 07:42:52 51°9.391 2°37.484 260.7 14.8 257 10.7
2004-07-05 07:43:49 51°9.334 2°37.124 260.8 14.8 256 11.5
2004-07-05 07:44:57 51°9.266 2°36.692 260 14.8 256 12.9
2004-07-05 07:45:57 51°9.205 2°36.312 260.5 14.9 256 14
2004-07-05 07:46:56 51°9.18 2°35.927 276.5 14.9 270 14.7
2004-07-05 07:47:57 51°9.186 2°35.526 279.8 14.9 273 15.2
2004-07-05 07:48:55 51°9.237 2°35.161 295 14.7 286 15.4
2004-07-05 07:49:56 51°9.304 2°34.782 294.1 14.6 285 16
2004-07-05 07:50:56 51°9.41 2°34.446 319.1 14 311 16.8
2004-07-05 07:51:56 51°9.605 2°34.338 19.2 12.2 15 14.6
2004-07-05 07:52:57 51°9.789 2°34.491 40.4 12.4 32 10.4
2004-07-05 07:53:56 51°9.963 2°34.66 39.9 12.6 32 9.3
2004-07-05 07:54:57 51°10.146 2°34.841 39.6 12.8 31 9.6
2004-07-05 07:55:57 51°10.325 2°35.02 40.4 12.5 33 8.7
2004-07-05 07:56:57 51°10.497 2°35.2 38.4 12.3 30 8.1
2004-07-05 07:57:56 51°10.671 2°35.367 43.6 12.4 37 7.8
2004-07-05 07:58:57 51°10.846 2°35.557 36.4 12.5 28 8.2
2004-07-05 07:59:56 51°11.016 2°35.733 45.1 12.5 37 8.2
2004-07-05 08:00:57 51°11.195 2°35.913 44 12.5 38 8.2
2004-07-05 08:01:57 51°11.358 2°36.117 42.1 12.5 35 8.5
2004-07-05 08:02:55 51°11.513 2°36.321 52.1 12.5 44 8.6
2004-07-05 08:03:56 51°11.673 2°36.542 48.3 12.6 42 8.8
2004-07-05 08:04:57 51°11.83 2°36.768 47.5 12.6 41 8.9
2004-07-05 08:05:56 51°11.984 2°36.985 47.2 12.6 41 9.2
2004-07-05 08:06:57 51°12.144 2°37.208 47.4 12.6 41 9.7
2004-07-05 08:07:57 51°12.302 2°37.428 47.6 12.6 41 10
2004-07-05 08:08:56 51°12.457 2°37.647 47.7 12.7 41 10.6
2004-07-05 08:09:55 51°12.611 2°37.867 48.4 12.7 42 11.3
2004-07-05 08:10:55 51°12.767 2°38.089 48.1 12.6 43 11.7
2004-07-05 08:11:57 51°12.932 2°38.316 46.7 12.6 36 12.2
2004-07-05 08:12:56 51°13.114 2°38.473 35.4 12.7 27 12.6
2004-07-05 08:13:57 51°13.304 2°38.631 35.7 12.6 27 12.9
2004-07-05 08:14:57 51°13.492 2°38.784 35.3 12.6 28 12.8
2004-07-05 08:15:57 51°13.688 2°38.897 19 12.9 9 13.1
2004-07-05 08:16:56 51°13.9 2°38.927 10.5 13 358 12.2
2004-07-05 08:17:56 51°14.109 2°38.835 342.5 13.3 330 9.9
2004-07-05 08:18:57 51°14.233 2°38.524 294.7 14.4 285 15.1
2004-07-05 08:19:56 51°14.217 2°38.146 264.3 14.8 258 17.2
2004-07-05 08:20:56 51°14.163 2°37.761 261.9 15 258 18.2
2004-07-05 08:21:57 51°14.108 2°37.364 262.2 15.1 257 16.5
2004-07-05 08:22:57 51°14.056 2°36.971 262.9 15.2 259 15.1
2004-07-05 08:23:57 51°14.006 2°36.576 263.4 15.2 259 14.1
2004-07-05 08:24:55 51°13.958 2°36.195 262.8 15.2 259 13.5
2004-07-05 08:25:57 51°13.914 2°35.785 269.4 15.2 265 13.1
2004-07-05 08:26:57 51°13.922 2°35.388 282.3 14.8 279 12.2
2004-07-05 08:27:55 51°14.058 2°35.123 347 13.2 343 14.6
2004-07-05 08:28:57 51°14.278 2°35.145 18.4 12.9 9 18.1
2004-07-05 08:29:57 51°14.489 2°35.209 21.2 12.8 12 17.2
2004-07-05 08:30:56 51°14.693 2°35.28 21.5 12.7 14 16.9
2004-07-05 08:31:57 51°14.904 2°35.358 21.7 12.8 13 18
2004-07-05 08:32:57 51°15.11 2°35.435 22 12.7 14 21.2
2004-07-05 08:33:57 51°15.316 2°35.514 21.8 12.7 13 23.7
2004-07-05 08:34:57 51°15.521 2°35.593 21.6 12.6 14 25
2004-07-05 08:35:56 51°15.711 2°35.665 22.2 9.1 13 25.5
2004-07-05 08:36:56 51°15.795 2°35.627 330.1 4.3 305 25.5
2004-07-05 08:37:56 51°15.795 2°35.57 279.8 1.5 229 25.3
2004-07-05 08:38:56 51°15.775 2°35.54 249.7 1.9 224 25.3
2004-07-05 08:39:56 51°15.746 2°35.502 217.5 2.3 216 25
2004-07-05 08:40:57 51°15.709 2°35.466 191 2.6 205 25.3
2004-07-05 08:41:57 51°15.669 2°35.44 182 2.5 201 25.7
2004-07-05 08:42:57 51°15.631 2°35.417 181 2.4 200 25.9
2004-07-05 08:43:56 51°15.594 2°35.395 183.6 2.4 203 25.2
2004-07-05 08:44:57 51°15.557 2°35.369 187.3 2.4 203 25
2004-07-05 08:45:57 51°15.52 2°35.343 191.3 2.4 205 25.1
2004-07-05 08:46:57 51°15.485 2°35.315 195.2 2.4 207 24.9
2004-07-05 08:47:57 51°15.451 2°35.285 200.9 2.3 210 24.9
2004-07-05 08:48:57 51°15.418 2°35.253 206.1 2.3 211 24.7
2004-07-05 08:49:56 51°15.387 2°35.221 211.5 2.3 213 24.7
2004-07-05 08:50:57 51°15.355 2°35.186 215.6 2.3 216 24.8
2004-07-05 08:51:59 51°15.324 2°35.149 220.3 2.2 217 24.9
2004-07-05 08:52:59 51°15.292 2°35.109 222 3.3 216 24.9
2004-07-05 08:53:59 51°15.211 2°35.084 159.7 5.6 169 24.8
2004-07-05 08:54:59 51°15.168 2°35.193 82.8 5.1 85 24.5
2004-07-05 08:55:59 51°15.262 2°35.304 29.4 10 21 24.6
2004-07-05 08:56:59 51°15.448 2°35.406 27.2 12.2 19 24.8
2004-07-05 08:57:59 51°15.639 2°35.51 26.2 12.1 17 25.6
2004-07-05 08:58:59 51°15.833 2°35.592 23.9 12 15 25.3
2004-07-05 08:59:59 51°16.026 2°35.672 23.2 12 14 25.3
2004-07-05 09:00:59 51°16.218 2°35.75 24 11.9 15 25.2
2004-07-05 09:01:59 51°16.412 2°35.816 21 11.9 11 25
2004-07-05 09:02:59 51°16.607 2°35.875 21.1 11.9 12 25.2
2004-07-05 09:03:59 51°16.801 2°35.936 21.4 11.9 13 25.1
2004-07-05 09:04:59 51°16.872 2°36.143 94.3 9.6 100 25.4
2004-07-05 09:05:59 51°16.795 2°36.246 151.5 4.5 173 25.7
2004-07-05 09:06:59 51°16.743 2°36.217 196.7 3 207 25.4
2004-07-05 09:07:59 51°16.701 2°36.177 204.2 2.9 213 25.5
2004-07-05 09:09:04 51°16.658 2°36.132 206.4 2.8 213 25.3
2004-07-05 09:10:04 51°16.62 2°36.089 211 2.7 216 25.5
2004-07-05 09:11:03 51°16.585 2°36.048 211.6 2.6 216 25.5
2004-07-05 09:12:04 51°16.549 2°36.007 213.3 2.6 214 25.6
2004-07-05 09:13:04 51°16.514 2°35.967 213.4 2.6 216 26.1
2004-07-05 09:14:07 51°16.478 2°35.924 215.7 2.6 217 26.3
2004-07-05 09:15:09 51°16.443 2°35.882 218 2.5 216 26.1
2004-07-05 09:16:09 51°16.409 2°35.841 217 2.6 216 25.5
2004-07-05 09:17:07 51°16.375 2°35.802 217.3 2.6 216 25.5
2004-07-05 09:18:08 51°16.34 2°35.761 220.1 2.6 216 25.5
2004-07-05 09:19:14 51°16.302 2°35.716 222.5 2.6 216 25.3
2004-07-05 09:20:13 51°16.267 2°35.675 224.6 2.6 217 25.3
2004-07-05 09:21:14 51°16.232 2°35.634 225 2.6 217 25.3
2004-07-05 09:22:14 51°16.197 2°35.59 227.1 2.7 218 25.4
2004-07-05 09:23:13 51°16.162 2°35.547 229 2.7 218 25.9
2004-07-05 09:24:13 51°16.128 2°35.504 230.8 2.6 219 26
2004-07-05 09:25:13 51°16.093 2°35.46 232 2.7 218 25.8
2004-07-05 09:26:13 51°16.058 2°35.415 230.8 3.1 221 25.9
2004-07-05 09:27:14 51°15.992 2°35.366 171.2 4.8 190 25.5
2004-07-05 09:28:13 51°15.941 2°35.406 90 2.7 108 25.5
2004-07-05 09:29:14 51°15.989 2°35.48 39.4 8.1 33 25.2
2004-07-05 09:30:13 51°16.138 2°35.633 35.9 11.5 27 25.7
2004-07-05 09:31:12 51°16.316 2°35.742 28.8 11.6 20 25.4
2004-07-05 09:32:13 51°16.499 2°35.855 29.2 11.7 21 26.2
2004-07-05 09:33:15 51°16.686 2°35.973 29.4 11.7 22 25.6
2004-07-05 09:34:15 51°16.865 2°36.087 30 11.6 23 25.7
2004-07-05 09:35:15 51°17.043 2°36.204 30.1 11.6 22 24.4
2004-07-05 09:36:15 51°17.222 2°36.322 30.3 11.7 23 23.5
2004-07-05 09:37:15 51°17.404 2°36.433 28.3 11.6 21 21.1
2004-07-05 09:38:15 51°17.586 2°36.541 27.8 11.7 21 19.6
2004-07-05 09:39:15 51°17.769 2°36.653 28.3 11.7 21 17.5
2004-07-05 09:40:15 51°17.951 2°36.762 28 11.8 21 18.7
2004-07-05 09:41:15 51°18.134 2°36.873 28 11.7 20 16.7
2004-07-05 09:42:15 51°18.317 2°36.98 27.7 11.7 20 17.8
2004-07-05 09:43:15 51°18.512 2°36.948 351 12.4 336 16.5
2004-07-05 09:44:15 51°18.69 2°36.746 334.1 13.5 320 18
2004-07-05 09:45:15 51°18.854 2°36.497 327.7 13.7 315 18.7
2004-07-05 09:46:15 51°19.016 2°36.246 329.3 13.5 315 20
2004-07-05 09:47:15 51°19.173 2°35.986 326.3 13.6 314 22.3
2004-07-05 09:48:15 51°19.33 2°35.725 326.5 13.6 314 21.2
2004-07-05 09:49:15 51°19.482 2°35.456 325.7 13.6 312 19.4
2004-07-05 09:50:15 51°19.635 2°35.187 325.6 13.7 313 16.7
2004-07-05 09:51:15 51°19.788 2°34.914 325.3 13.8 312 13.4
2004-07-05 09:52:13 51°19.937 2°34.648 324.3 13.9 311 22.7
2004-07-05 09:53:15 51°20.094 2°34.364 325.8 13.7 312 28.8
2004-07-05 09:54:15 51°20.246 2°34.092 325.6 13.6 312 29.7
2004-07-05 09:55:15 51°20.395 2°33.819 325.4 13.7 310 30
2004-07-05 09:56:15 51°20.544 2°33.544 325.7 13.7 311 30.2
2004-07-05 09:57:15 51°20.693 2°33.266 325.7 13.7 311 30.2
2004-07-05 09:58:15 51°20.841 2°32.99 325.3 13.7 311 29.8
2004-07-05 09:59:12 51°20.985 2°32.733 326 13.6 312 29.2
2004-07-05 10:00:17 51°21.173 2°32.511 345 12.7 334 23.4
2004-07-05 10:01:15 51°21.365 2°32.427 1.5 12.2 351 18.5
2004-07-05 10:02:22 51°21.59 2°32.361 0.3 12.4 349 19.4
2004-07-05 10:03:22 51°21.793 2°32.289 0.4 12.5 347 26.2
2004-07-05 10:04:21 51°21.992 2°32.218 1.9 12.5 348 29.5
2004-07-05 10:05:21 51°22.196 2°32.146 2.2 12.6 347 29.3
2004-07-05 10:06:25 51°22.413 2°32.062 0.9 12.5 346 29.8
2004-07-05 10:07:25 51°22.544 2°31.936 314.5 7.1 289 30.4
2004-07-05 10:08:25 51°22.537 2°31.808 263.7 3.3 243 30.7
2004-07-05 10:09:25 51°22.512 2°31.752 233.8 2.5 231 30.8
2004-07-05 10:10:25 51°22.476 2°31.694 209.9 4.6 217 30.8
2004-07-05 10:11:25 51°22.404 2°31.653 161.1 4.4 189 30.1
2004-07-05 10:12:25 51°22.348 2°31.68 111.8 3.2 141 30
2004-07-05 10:13:25 51°22.306 2°31.749 115.7 4.2 142 30.5
2004-07-05 10:14:25 51°22.224 2°31.763 176.3 5.4 197 31.2
2004-07-05 10:15:25 51°22.154 2°31.705 202.4 4.2 214 31
2004-07-05 10:16:25 51°22.118 2°31.65 222.6 2.6 226 29.6
2004-07-05 10:17:25 51°22.091 2°31.603 226.2 1.9 230 30.8
2004-07-05 10:18:25 51°22.071 2°31.567 216.8 1.9 231 29.3
2004-07-05 10:19:25 51°22.05 2°31.527 202 2.1 228 29.7
2004-07-05 10:20:25 51°22.026 2°31.484 196.2 2.2 228 30.4
2004-07-05 10:21:25 51°22 2°31.44 198.4 2.3 226 31.4
2004-07-05 10:22:25 51°21.974 2°31.394 203.8 2.4 226 28.7
2004-07-05 10:23:25 51°21.947 2°31.349 208.3 2.3 226 31.1
2004-07-05 10:24:25 51°21.919 2°31.303 211.1 2.5 227 31.5
2004-07-05 10:25:31 51°21.89 2°31.254 218 1.6 230 30.9
2004-07-05 10:26:31 51°21.887 2°31.229 201.3 1.1 270 31.3
2004-07-05 10:27:31 51°21.883 2°31.194 187.7 1.5 253 30.9
2004-07-05 10:28:31 51°21.872 2°31.152 177.6 1.8 243 30
2004-07-05 10:29:31 51°21.856 2°31.109 171.3 2 236 27.9
2004-07-05 10:30:31 51°21.837 2°31.067 170.1 1.9 230 30.8
2004-07-05 10:31:29 51°21.815 2°31.029 172.7 2.3 223 28.3
2004-07-05 10:32:31 51°21.78 2°30.991 166 3 201 31.7
2004-07-05 10:33:31 51°21.736 2°31.014 97 2.5 106 27.6
2004-07-05 10:34:31 51°21.782 2°31.043 21.7 6.7 2 28.9
2004-07-05 10:35:31 51°21.959 2°31.044 14.2 12.1 1 30.8
2004-07-05 10:36:31 51°22.163 2°31.048 14.5 12.3 1 32.4
2004-07-05 10:37:31 51°22.367 2°31.06 14.6 12.3 1 30.5
2004-07-05 10:38:31 51°22.569 2°31.075 15.9 12.1 4 30.5
2004-07-05 10:39:30 51°22.767 2°31.093 16.3 12.1 4 30.2
2004-07-05 10:40:31 51°22.968 2°31.132 23.9 11.8 13 28.2
2004-07-05 10:41:30 51°23.155 2°31.209 26.5 11.7 17 26.7
2004-07-05 10:42:31 51°23.341 2°31.313 29.8 11.6 20 26.5
2004-07-05 10:43:31 51°23.532 2°31.385 18.9 11.9 8 27.2
2004-07-05 10:44:30 51°23.727 2°31.339 350 12.7 335 28.8
2004-07-05 10:45:31 51°23.903 2°31.121 325.1 13.7 310 31
2004-07-05 10:46:31 51°24.016 2°30.795 305.8 14.3 293 33.3
2004-07-05 10:47:31 51°24.117 2°30.453 306.5 14.1 296 33.2
2004-07-05 10:48:31 51°24.22 2°30.113 307.6 14.3 295 33.7
2004-07-05 10:49:31 51°24.326 2°29.764 308.4 14.3 295 35.1
2004-07-05 10:50:29 51°24.423 2°29.435 308.7 14.3 296 34.5
2004-07-05 10:51:31 51°24.528 2°29.085 311.3 13.9 298 33.4
2004-07-05 10:52:31 51°24.699 2°28.91 3.1 11.6 356 32.2
2004-07-05 10:53:31 51°24.874 2°29.003 31.7 11.3 23 31.3
2004-07-05 10:54:31 51°25.042 2°29.136 35.6 11.3 30 31.9
2004-07-05 10:55:30 51°25.18 2°29.33 46.8 11.2 43 32.4
2004-07-05 10:56:31 51°25.32 2°29.534 46.7 11.1 42 32.4
2004-07-05 10:57:31 51°25.459 2°29.734 45.7 11.2 42 32
2004-07-05 10:58:31 51°25.6 2°29.934 45 11.4 40 30.6
2004-07-05 10:59:31 51°25.74 2°30.139 46.3 11.3 41 31.5
2004-07-05 11:00:31 51°25.833 2°30.394 72.3 11.5 76 32.3
2004-07-05 11:01:31 51°25.863 2°30.698 77.8 11.6 82 32.7
2004-07-05 11:02:31 51°25.8 2°31.002 117.1 13.1 127 33.3
2004-07-05 11:03:31 51°25.659 2°31.275 120.9 13.1 126 32.5
2004-07-05 11:04:31 51°25.53 2°31.559 120 13.3 126 32.6
2004-07-05 11:05:29 51°25.411 2°31.839 117.4 13.1 122 33.3
2004-07-05 11:06:31 51°25.294 2°32.149 115.5 13.1 122 33.1
2004-07-05 11:07:31 51°25.183 2°32.451 117 13.2 121 32.1
2004-07-05 11:08:31 51°25.061 2°32.74 118.3 12.9 122 20.7
2004-07-05 11:09:31 51°24.967 2°33.04 111.6 12.5 115 20
2004-07-05 11:10:31 51°24.871 2°33.34 111 12.7 116 21
2004-07-05 11:11:31 51°24.773 2°33.643 110.9 13 117 27.6
2004-07-05 11:12:31 51°24.674 2°33.948 111 12.8 116 31.2
2004-07-05 11:13:31 51°24.586 2°34.257 108.8 12.8 115 31.8
2004-07-05 11:14:31 51°24.504 2°34.571 105.1 12.6 109 31.9
2004-07-05 11:15:31 51°24.44 2°34.892 102.4 12.6 106 31.9
2004-07-05 11:16:31 51°24.381 2°35.212 104 12.7 111 32.5
2004-07-05 11:17:31 51°24.3 2°35.531 108 13 114 34.1
2004-07-05 11:18:31 51°24.197 2°35.836 113.7 13 121 32.2
2004-07-05 11:19:31 51°24.091 2°36.095 116.7 8.6 130 32.2
2004-07-05 11:20:31 51°23.98 2°36.178 168 7.1 183 31.9
2004-07-05 11:21:31 51°23.885 2°36.092 235.8 6.3 228 31.3
2004-07-05 11:22:31 51°23.852 2°35.96 290.7 4.7 266 31.9
2004-07-05 11:23:29 51°23.87 2°35.84 315.9 5.8 292 32.9
2004-07-05 11:24:31 51°23.93 2°35.709 339.4 5.5 310 32.1
2004-07-05 11:25:31 51°23.941 2°35.589 286.7 3.1 251 33.4
2004-07-05 11:26:31 51°23.919 2°35.537 260.5 2.2 232 34.7
2004-07-05 11:27:31 51°23.891 2°35.497 232.5 2.2 219 35.2
2004-07-05 11:28:29 51°23.864 2°35.463 208.2 2.2 216 34.6
2004-07-05 11:29:31 51°23.833 2°35.43 188.3 2.2 212 34
2004-07-05 11:30:31 51°23.801 2°35.402 177.1 2.2 208 34.5
2004-07-05 11:31:31 51°23.769 2°35.378 168.7 2.2 203 34.1
2004-07-05 11:32:32 51°23.735 2°35.355 166.9 2.2 204 33.2
2004-07-05 11:33:31 51°23.701 2°35.331 170 2.3 205 33.3
2004-07-05 11:34:31 51°23.667 2°35.307 173.4 2.3 205 32.9
2004-07-05 11:35:31 51°23.633 2°35.282 173.4 2.3 206 32.9
2004-07-05 11:36:31 51°23.598 2°35.255 178 2.3 205 32.7
2004-07-05 11:37:29 51°23.566 2°35.23 177.9 2.3 206 32.8
2004-07-05 11:38:31 51°23.53 2°35.201 180.1 2.3 206 32.9
2004-07-05 11:39:31 51°23.495 2°35.174 180.1 2.2 202 33.5
2004-07-05 11:40:31 51°23.427 2°35.184 146.1 8.2 155 32.2
2004-07-05 11:41:28 51°23.249 2°35.306 155 14.1 159 31.8
2004-07-05 11:42:30 51°23.014 2°35.433 163.3 14.6 169 25.8
2004-07-05 11:43:31 51°22.768 2°35.481 172.8 14.8 174 23.6
2004-07-05 11:44:31 51°22.526 2°35.532 169.6 14.6 172 29
2004-07-05 11:45:31 51°22.285 2°35.589 169.8 14.6 171 30.6
2004-07-05 11:46:31 51°22.046 2°35.653 168.4 14.4 169 30.9
2004-07-05 11:47:31 51°21.809 2°35.714 168.8 14.6 171 31.4
2004-07-05 11:48:31 51°21.571 2°35.77 168.8 14.4 170 31.5
2004-07-05 11:49:31 51°21.333 2°35.829 168.1 14.5 171 31.7
2004-07-05 11:50:31 51°21.096 2°35.886 169 14.3 171 30.7
2004-07-05 11:51:31 51°20.879 2°36.006 143.7 13.6 145 27.6
2004-07-05 11:52:31 51°20.711 2°36.245 133.1 13.7 136 22.5
2004-07-05 11:53:31 51°20.549 2°36.503 132.1 13.5 128 21.7
2004-07-05 11:54:35 51°20.458 2°36.844 104.9 12.8 101 23.4
2004-07-05 11:55:35 51°20.446 2°37.184 90.7 12.9 91 24
2004-07-05 11:56:36 51°20.434 2°37.533 93.1 13.1 96 22.6
2004-07-05 11:57:35 51°20.418 2°37.871 93.3 13 96 23.7
2004-07-05 11:58:35 51°20.399 2°38.215 92.8 13 94 23.8
2004-07-05 11:59:35 51°20.382 2°38.559 94.3 13.1 96 24.6
2004-07-05 12:00:35 51°20.364 2°38.904 94.2 13 95 25.1
2004-07-05 12:01:35 51°20.354 2°39.25 89.2 13.1 89 25.5
2004-07-05 12:02:35 51°20.36 2°39.596 88.6 12.9 88 26
2004-07-05 12:03:35 51°20.368 2°39.941 88 13.1 87 28.3
2004-07-05 12:04:35 51°20.381 2°40.288 88.3 13.1 87 28.5
2004-07-05 12:05:35 51°20.388 2°40.635 90.4 13.1 89 29.3
2004-07-05 12:06:35 51°20.394 2°40.985 91.2 13.1 90 28.7
2004-07-05 12:07:35 51°20.403 2°41.333 88.7 13 88 21.8
2004-07-05 12:08:35 51°20.412 2°41.68 88.7 13.3 87 22
2004-07-05 12:09:35 51°20.421 2°42.03 89.8 13.1 88 20.2
2004-07-05 12:10:34 51°20.429 2°42.373 89 13.2 89 22.2
2004-07-05 12:11:35 51°20.435 2°42.729 89.1 13.1 88 24.5
2004-07-05 12:12:35 51°20.439 2°43.079 89.2 13.2 90 26.3
2004-07-05 12:13:35 51°20.408 2°43.426 99.7 13.4 100 27.8
2004-07-05 12:14:35 51°20.37 2°43.777 99.8 13.3 100 28.2
2004-07-05 12:15:35 51°20.302 2°44.113 111 13.3 113 27.9
2004-07-05 12:16:35 51°20.221 2°44.448 111.3 13.5 112 26.8
2004-07-05 12:17:35 51°20.142 2°44.784 111.7 13.6 113 25.1
2004-07-05 12:18:35 51°20.059 2°45.119 111.6 13.5 112 24.2
2004-07-05 12:19:35 51°19.976 2°45.453 111.6 13.5 111 20.5
2004-07-05 12:20:35 51°19.896 2°45.789 111 13.6 111 15.9
2004-07-05 12:21:35 51°19.814 2°46.124 112 13.7 112 13
2004-07-05 12:22:35 51°19.73 2°46.461 111.4 13.6 112 19.6
2004-07-05 12:23:35 51°19.648 2°46.797 111 13.6 112 21.6
2004-07-05 12:24:35 51°19.553 2°47.126 116.9 13.7 120 22.8
2004-07-05 12:25:35 51°19.434 2°47.438 120.2 13.7 122 22.7
2004-07-05 12:26:35 51°19.316 2°47.749 119.6 13.8 122 21.8
2004-07-05 12:27:35 51°19.201 2°48.062 119.5 13.7 120 19.7
2004-07-05 12:28:34 51°19.088 2°48.373 119.9 13.9 120 17.7
2004-07-05 12:29:35 51°18.971 2°48.697 119.7 14 120 15.4
2004-07-05 12:30:35 51°18.861 2°49.019 119.1 13.8 118 12.8
2004-07-05 12:31:35 51°18.739 2°49.336 123.4 14.1 123 11.9
2004-07-05 12:32:35 51°18.612 2°49.649 123.7 14.1 123 13.4
2004-07-05 12:33:35 51°18.486 2°49.962 123.9 14.1 124 14.9
2004-07-05 12:34:35 51°18.358 2°50.274 123.5 14 124 15.6
2004-07-05 12:35:35 51°18.231 2°50.584 122.5 13.9 123 14.9
2004-07-05 12:36:35 51°18.103 2°50.892 126.2 14 125 14.2
2004-07-05 12:37:35 51°17.961 2°51.185 130.6 14.1 132 12.9
2004-07-05 12:38:34 51°17.813 2°51.465 130.6 14.1 129 11.6
2004-07-05 12:39:35 51°17.653 2°51.745 139.6 14.2 138 11.6
2004-07-05 12:40:35 51°17.475 2°51.989 142.4 14.1 142 12
2004-07-05 12:41:35 51°17.266 2°52.145 163.3 13.9 160 12.2
2004-07-05 12:42:35 51°17.051 2°52.281 160.5 13.9 157 11.6
2004-07-05 12:43:35 51°16.836 2°52.423 160.1 14.1 158 11.4
2004-07-05 12:44:35 51°16.622 2°52.569 160.4 14 155 12.7
2004-07-05 12:45:35 51°16.41 2°52.722 159.7 14.1 154 13.8
2004-07-05 12:46:35 51°16.198 2°52.877 159.7 14 156 14
2004-07-05 12:47:35 51°15.99 2°53.041 155.9 13.9 151 13.9
2004-07-05 12:48:35 51°15.788 2°53.215 156.2 13.8 152 13.3
2004-07-05 12:49:35 51°15.584 2°53.392 154.4 14 150 12.8
2004-07-05 12:50:35 51°15.384 2°53.578 154.8 13.8 151 12.1
2004-07-05 12:51:35 51°15.199 2°53.754 156.7 10.5 153 11.6
2004-07-05 12:52:35 51°15.092 2°53.828 163.2 5 150 11.7
2004-07-05 12:53:35 51°15.039 2°53.899 151.7 3.7 138 11.9
2004-07-05 12:54:35 51°14.978 2°53.963 160.9 7.1 148 11.4
2004-07-05 12:55:35 51°14.844 2°54.152 140.6 12.4 136 11.5
2004-07-05 12:56:40 51°14.692 2°54.43 134.7 13.1 129 12.1
2004-07-05 12:57:39 51°14.562 2°54.703 133.7 13.2 125 12
2004-07-05 12:58:40 51°14.422 2°54.972 137.5 12.8 130 12.9
2004-07-05 12:59:40 51°14.296 2°55.2 139 9.6 134 13.5
2004-07-05 13:00:40 51°14.192 2°55.352 142.7 8.1 141 13.7